Time;durP1;ratioP1;P1;durP2;ratioP2;P2;SDS_P1;SDS_P2;PMS_P1;PMS_P2;Temp;Humidity;BMP_temperature;BMP_pressure;BME280_temperature;BME280_humidity;BME280_pressure;Samples;Min_cycle;Max_cycle;Signal;HPM_P1;HPM_P2
2022/11/05 00:10:09;;;;;;;0.10;0.10;;;;;;;9.15;72.45;101609.41;5057157;28;20079;-80
2022/11/05 00:18:08;;;;;;;0.10;0.10;;;;;;;9.00;72.13;101605.88;5057839;28;20033;-80
2022/11/05 00:20:34;;;;;;;0.20;0.20;;;;;;;8.97;72.55;101613.84;5057684;28;20033;-80
2022/11/05 00:28:34;;;;;;;0.10;0.10;;;;;;;8.85;72.36;101614.72;5089801;27;20745;-79
2022/11/05 00:31:03;;;;;;;0.10;0.10;;;;;;;8.86;72.12;101620.88;5080358;28;20034;-79
2022/11/05 00:33:30;;;;;;;0.10;0.10;;;;;;;8.86;72.11;101620.88;5078457;28;20039;-79
2022/11/05 00:35:56;;;;;;;0.17;0.17;;;;;;;8.85;72.47;101627.91;5073879;28;20531;-80
2022/11/05 00:38:22;;;;;;;0.10;0.10;;;;;;;8.87;72.86;101627.91;5079454;28;20037;-79
2022/11/05 00:40:49;;;;;;;0.35;0.35;;;;;;;8.89;72.57;101636.72;5074914;28;20040;-79
2022/11/05 00:46:01;;;;;;;0.20;0.20;;;;;;;8.95;73.27;101638.47;5077325;28;20039;-80
2022/11/05 00:51:13;;;;;;;0.20;0.20;;;;;;;9.03;73.18;101634.97;5074522;28;20040;-79
2022/11/05 00:53:39;;;;;;;0.20;0.20;;;;;;;9.09;72.92;101634.06;5070745;28;20082;-80
2022/11/05 00:56:05;;;;;;;0.20;0.20;;;;;;;9.12;73.50;101638.47;5075655;28;20036;-79
2022/11/05 00:58:32;;;;;;;0.10;0.10;;;;;;;9.13;73.11;101638.47;5073434;28;20024;-79
2022/11/05 01:00:59;;;;;;;0.10;0.10;;;;;;;9.15;73.36;101642.00;5075841;28;20388;-79
2022/11/05 01:03:28;;;;;;;0.10;0.10;;;;;;;9.18;73.02;101649.03;5077711;28;20041;-79
2022/11/05 01:05:57;;;;;;;0.10;0.10;;;;;;;9.21;73.73;101649.06;5077701;28;20504;-79
2022/11/05 01:08:26;;;;;;;1.30;1.20;;;;;;;9.21;73.16;101649.91;5071261;28;20112;-79
2022/11/05 01:10:56;;;;;;;1.30;0.80;;;;;;;9.25;73.51;101652.56;5072471;28;20043;-79
2022/11/05 01:13:26;;;;;;;0.20;0.20;;;;;;;9.23;73.56;101656.09;5071362;28;20485;-79
2022/11/05 01:15:53;;;;;;;0.10;0.10;;;;;;;9.22;73.47;101656.06;5073749;28;20025;-79
2022/11/05 01:18:21;;;;;;;1.30;1.20;;;;;;;9.20;73.45;101656.09;5075520;28;20028;-79
2022/11/05 01:20:47;;;;;;;0.10;0.10;;;;;;;9.16;73.10;101664.91;5078224;28;20031;-79
2022/11/05 01:23:14;;;;;;;0.38;0.38;;;;;;;9.12;73.13;101662.25;5072846;28;20029;-79
2022/11/05 01:25:42;;;;;;;0.10;0.10;;;;;;;9.07;73.35;101657.88;5069806;28;20028;-79
2022/11/05 01:28:09;;;;;;;0.10;0.10;;;;;;;9.02;72.58;101654.34;5080824;28;20017;-79
2022/11/05 01:30:35;;;;;;;0.20;0.20;;;;;;;8.96;72.93;101654.34;5079400;28;20088;-79
2022/11/05 01:33:02;;;;;;;0.20;0.20;;;;;;;8.93;72.53;101654.34;5077409;28;20029;-80
2022/11/05 01:35:28;;;;;;;0.10;0.10;;;;;;;8.89;72.61;101647.31;5072968;28;20025;-79
2022/11/05 01:37:55;;;;;;;0.10;0.10;;;;;;;8.86;72.46;101655.22;5068195;28;20696;-79
2022/11/05 01:40:23;;;;;;;0.15;0.15;;;;;;;8.82;72.62;101657.00;5061339;28;20476;-79
2022/11/05 01:42:49;;;;;;;0.10;0.10;;;;;;;8.77;72.83;101663.16;5059987;28;20029;-79
2022/11/05 01:45:25;;;;;;;0.10;0.10;;;;;;;8.77;72.27;101665.78;5062295;28;20528;-79
2022/11/05 01:55:56;;;;;;;0.17;0.17;;;;;;;8.50;72.53;101659.59;5061604;28;20887;-78
2022/11/05 01:58:27;;;;;;;0.10;0.10;;;;;;;8.49;72.27;101653.44;5049633;28;20057;-79
2022/11/05 02:00:55;;;;;;;0.13;0.13;;;;;;;8.48;72.24;101650.81;5048660;28;20040;-79
2022/11/05 02:03:22;;;;;;;0.10;0.10;;;;;;;8.43;72.81;101648.09;5048319;28;20034;-79
2022/11/05 02:05:50;;;;;;;0.10;0.10;;;;;;;8.41;72.32;101645.47;5048654;28;20037;-79
2022/11/05 02:08:28;;;;;;;0.10;0.10;;;;;;;8.41;72.08;101645.47;5049529;28;20048;-80
2022/11/05 02:10:54;;;;;;;0.13;0.13;;;;;;;8.35;72.19;101640.19;5050060;28;20439;-79
2022/11/05 02:13:21;;;;;;;0.20;0.20;;;;;;;8.31;72.08;101650.72;5050258;28;20029;-79
2022/11/05 02:16:02;;;;;;;0.10;0.10;;;;;;;8.30;72.45;101651.59;5047275;28;20405;-79
2022/11/05 02:18:45;;;;;;;0.38;0.38;;;;;;;8.26;71.95;101654.25;5049291;28;20100;-79
2022/11/05 02:29:51;;;;;;;0.10;0.10;;;;;;;8.17;72.52;101655.97;5097486;27;20333;-79
2022/11/05 02:35:14;;;;;;;0.10;0.10;;;;;;;8.07;71.88;101669.16;5049448;28;20395;-79
2022/11/05 02:37:50;;;;;;;0.10;0.10;;;;;;;8.05;72.70;101673.53;5029544;28;20034;-79
2022/11/05 02:40:44;;;;;;;0.10;0.10;;;;;;;8.08;72.40;101662.09;5029390;28;20030;-79
2022/11/05 02:43:35;;;;;;;0.10;0.10;;;;;;;8.12;73.02;101653.31;5026731;28;20048;-80
2022/11/05 02:46:18;;;;;;;0.10;0.10;;;;;;;8.12;73.18;101663.00;5025203;28;20034;-80
2022/11/05 02:48:56;;;;;;;0.60;0.60;;;;;;;8.12;73.45;101661.22;5027688;28;20052;-80
2022/11/05 02:51:31;;;;;;;0.15;0.15;;;;;;;8.17;73.03;101662.13;5029034;28;20029;-80
2022/11/05 02:56:49;;;;;;;0.40;0.40;;;;;;;8.30;73.59;101657.78;5055540;28;20388;-79
2022/11/05 02:59:15;;;;;;;0.17;0.17;;;;;;;8.36;72.95;101657.78;5052532;28;20413;-79
2022/11/05 03:01:44;;;;;;;0.20;0.20;;;;;;;8.42;73.21;101652.53;5052464;28;20025;-79
2022/11/05 03:04:13;;;;;;;0.20;0.20;;;;;;;8.53;73.48;101649.03;5051594;28;20063;-79
2022/11/05 03:07:06;;;;;;;0.17;0.17;;;;;;;8.69;73.71;101645.53;5050914;28;20052;-79
2022/11/05 03:12:32;;;;;;;0.10;0.10;;;;;;;8.85;73.90;101650.84;5096194;27;20334;-79
2022/11/05 03:15:14;;;;;;;0.10;0.10;;;;;;;8.88;73.49;101656.09;5088269;28;20028;-79
2022/11/05 03:17:55;;;;;;;0.20;0.20;;;;;;;8.90;73.72;101670.22;5068469;28;20020;-79
2022/11/05 03:21:01;;;;;;;0.10;0.10;;;;;;;8.93;73.34;101656.97;5065993;28;20052;-79
2022/11/05 03:23:50;;;;;;;0.10;0.10;;;;;;;8.93;73.86;101667.56;5069313;28;20033;-80
2022/11/05 03:26:27;;;;;;;0.30;0.30;;;;;;;8.98;73.86;101657.84;5069385;28;20116;-80
2022/11/05 03:28:59;;;;;;;0.10;0.10;;;;;;;9.03;73.74;101664.06;5070311;28;20035;-79
2022/11/05 03:31:27;;;;;;;;;;;;;;;9.20;73.47;101665.78;5070352;28;20112;-80
2022/11/05 03:33:57;;;;;;;0.10;0.10;;;;;;;9.16;73.72;101671.94;5065317;28;19916;-80
2022/11/05 03:36:30;;;;;;;0.10;0.10;;;;;;;9.19;74.00;101677.25;5066239;28;20082;-80
2022/11/05 03:38:59;;;;;;;0.10;0.10;;;;;;;9.19;74.27;101677.25;5066754;28;20552;-79
2022/11/05 03:41:27;;;;;;;0.10;0.10;;;;;;;9.23;74.06;101671.97;5067372;28;20078;-79
2022/11/05 03:43:57;;;;;;;0.10;0.10;;;;;;;9.27;74.54;101680.78;5068544;28;20488;-79
2022/11/05 03:46:31;;;;;;;0.10;0.10;;;;;;;9.41;74.38;101680.75;5065019;28;20036;-79
2022/11/05 03:49:01;;;;;;;0.10;0.10;;;;;;;9.47;74.73;101679.84;5066938;28;20054;-79
2022/11/05 03:51:40;;;;;;;0.20;0.20;;;;;;;9.59;74.74;101677.19;5069085;28;20122;-79
2022/11/05 03:54:07;;;;;;;0.10;0.10;;;;;;;9.60;74.65;101678.06;5068489;28;20480;-79
2022/11/05 03:57:05;;;;;;;0.10;0.10;;;;;;;9.73;75.00;101660.38;5067681;28;20035;-79
2022/11/05 03:59:41;;;;;;;0.10;0.10;;;;;;;9.83;74.80;101664.75;5065622;28;20059;-79
2022/11/05 04:02:09;;;;;;;0.10;0.10;;;;;;;9.88;74.51;101649.72;5067714;28;20079;-79
2022/11/05 04:04:35;;;;;;;0.10;0.10;;;;;;;9.93;74.52;101661.19;5069881;28;20443;-79
2022/11/05 04:15:19;;;;;;;0.10;0.10;;;;;;;10.00;74.41;101660.25;5067281;28;20036;-80
2022/11/05 04:17:45;;;;;;;0.10;0.10;;;;;;;10.02;74.52;101666.44;5066374;28;20013;-80
2022/11/05 04:25:47;;;;;;;0.10;0.10;;;;;;;9.97;74.25;101662.94;5053028;28;20040;-80
2022/11/05 04:28:14;;;;;;;0.10;0.10;;;;;;;9.93;74.11;101669.16;5051064;28;20078;-80
2022/11/05 04:30:40;;;;;;;0.10;0.10;;;;;;;9.88;74.43;101668.25;5051799;28;20029;-80
2022/11/05 04:33:12;;;;;;;0.30;0.30;;;;;;;9.84;74.14;101662.13;5056732;28;20036;-80
2022/11/05 04:38:20;;;;;;;0.10;0.10;;;;;;;9.73;74.15;101671.84;5115135;27;20388;-80
2022/11/05 04:40:47;;;;;;;0.10;0.10;;;;;;;9.67;73.86;101666.56;5089726;28;20077;-81
2022/11/05 04:43:15;;;;;;;0.10;0.10;;;;;;;9.60;73.78;101668.34;5094992;28;20028;-81
2022/11/05 04:45:42;;;;;;;0.40;0.40;;;;;;;9.53;73.70;101677.19;5091598;28;20531;-81
2022/11/05 04:48:08;;;;;;;0.10;0.10;;;;;;;9.46;73.69;101675.44;5090452;28;20032;-81
2022/11/05 04:50:34;;;;;;;0.10;0.10;;;;;;;9.34;74.01;101668.41;5093505;28;20116;-79
2022/11/05 04:53:01;;;;;;;0.20;0.20;;;;;;;9.28;74.09;101684.28;5090099;28;20074;-80
2022/11/05 04:55:28;;;;;;;0.10;0.10;;;;;;;9.22;73.34;101680.78;5090766;28;20032;-80
2022/11/05 04:57:54;;;;;;;0.10;0.10;;;;;;;9.18;73.50;101675.47;5094265;28;20024;-80
2022/11/05 05:00:22;;;;;;;0.10;0.10;;;;;;;9.11;73.58;101687.84;5085645;28;20489;-80
2022/11/05 05:02:48;;;;;;;0.10;0.10;;;;;;;9.07;73.69;101679.03;5100413;28;20051;-80
2022/11/05 05:05:15;;;;;;;0.10;0.10;;;;;;;9.04;73.52;101678.13;5080786;28;20031;-82
2022/11/05 05:07:41;;;;;;;0.10;0.10;;;;;;;9.00;73.53;101671.09;5086124;28;20025;-81
2022/11/05 05:10:09;;;;;;;0.10;0.10;;;;;;;8.95;73.68;101675.47;5080844;28;20029;-82
2022/11/05 05:12:35;;;;;;;0.10;0.10;;;;;;;8.93;73.82;101679.91;5084586;28;20025;-81
2022/11/05 05:15:02;;;;;;;0.40;0.40;;;;;;;8.91;73.83;101687.84;5085416;28;20059;-81
2022/11/05 05:17:28;;;;;;;0.10;0.10;;;;;;;8.88;73.31;101678.16;5087870;28;20024;-81
2022/11/05 05:23:07;;;;;;;0.20;0.20;;;;;;;8.86;73.79;101679.00;5072271;28;20089;-82
2022/11/05 05:25:45;;;;;;;0.10;0.10;;;;;;;8.80;74.10;101684.28;5071236;28;20440;-79
2022/11/05 05:28:11;;;;;;;0.25;0.25;;;;;;;8.74;73.86;101683.41;5071424;28;20033;-81
2022/11/05 05:30:38;;;;;;;0.10;0.10;;;;;;;8.72;73.65;101682.53;5077931;28;20024;-80
2022/11/05 05:33:04;;;;;;;0.10;0.10;;;;;;;8.68;73.31;101690.44;5068236;28;20036;-80
2022/11/05 05:35:31;;;;;;;0.10;0.10;;;;;;;8.66;73.96;101686.91;5071418;28;20029;-80
2022/11/05 05:37:58;;;;;;;0.20;0.20;;;;;;;8.65;73.87;101688.69;5073326;28;20102;-81
2022/11/05 05:40:25;;;;;;;0.85;0.85;;;;;;;8.67;73.96;101689.59;5066853;28;20494;-81
2022/11/05 05:42:54;;;;;;;0.15;0.15;;;;;;;8.69;73.55;101690.44;5068699;28;20746;-79
2022/11/05 05:45:20;;;;;;;0.13;0.13;;;;;;;8.67;73.70;101694.88;5072930;28;20032;-80
2022/11/05 05:48:07;;;;;;;0.10;0.10;;;;;;;8.79;73.91;101688.69;5072134;28;20548;-79
2022/11/05 05:50:40;;;;;;;0.10;0.10;;;;;;;8.78;74.08;101697.50;5060680;28;20033;-81
2022/11/05 05:53:07;;;;;;;0.10;0.10;;;;;;;8.72;73.61;101698.41;5061300;28;20431;-80
2022/11/05 05:55:34;;;;;;;0.10;0.10;;;;;;;8.72;74.01;101693.09;5062566;28;20527;-79
2022/11/05 05:58:00;;;;;;;0.10;0.10;;;;;;;8.75;73.67;101705.44;5058168;28;20036;-80
2022/11/05 06:00:26;;;;;;;0.20;0.20;;;;;;;8.75;73.95;101697.50;5060721;28;20044;-79
2022/11/05 06:02:55;;;;;;;0.10;0.10;;;;;;;8.75;73.93;101705.44;5059807;28;20044;-80
2022/11/05 06:05:21;;;;;;;0.10;0.10;;;;;;;8.74;73.69;101701.91;5058033;28;20025;-80
2022/11/05 06:07:56;;;;;;;0.10;0.10;;;;;;;8.77;74.03;101708.06;5061494;28;20032;-79
2022/11/05 06:10:23;;;;;;;0.13;0.13;;;;;;;8.76;73.98;101714.22;5063424;28;20025;-78
2022/11/05 06:12:50;;;;;;;0.10;0.10;;;;;;;8.72;74.11;101711.59;5061667;28;20044;-81
2022/11/05 06:15:16;;;;;;;0.10;0.10;;;;;;;8.71;73.55;101712.47;5062830;28;20036;-79
2022/11/05 06:17:43;;;;;;;0.10;0.10;;;;;;;8.68;73.74;101717.72;5062744;28;20426;-80
2022/11/05 06:20:10;;;;;;;0.32;0.32;;;;;;;8.66;73.92;101719.50;5063294;28;20029;-80
2022/11/05 06:22:36;;;;;;;0.10;0.10;;;;;;;8.64;74.02;101734.47;5066995;28;20655;-80
2022/11/05 06:25:03;;;;;;;0.10;0.10;;;;;;;8.62;73.22;101728.28;5064580;28;20032;-81
2022/11/05 06:27:30;;;;;;;0.10;0.10;;;;;;;8.60;73.74;101729.16;5065826;28;20051;-81
2022/11/05 06:29:56;;;;;;;0.10;0.10;;;;;;;8.55;73.85;101726.53;5065879;28;20487;-81
2022/11/05 06:32:23;;;;;;;0.10;0.10;;;;;;;8.53;73.75;101728.28;5066579;28;20186;-81
2022/11/05 06:34:50;;;;;;;0.10;0.10;;;;;;;8.50;73.62;101723.88;5065765;28;20037;-81
2022/11/05 06:37:18;;;;;;;0.30;0.30;;;;;;;8.48;73.98;101719.47;5057409;28;20021;-81
2022/11/05 06:39:44;;;;;;;0.10;0.10;;;;;;;8.49;73.97;101727.38;5056992;28;20033;-80
2022/11/05 06:42:10;;;;;;;0.10;0.10;;;;;;;8.48;73.65;101719.47;5058406;28;20025;-80
2022/11/05 06:44:36;;;;;;;0.10;0.10;;;;;;;8.45;73.92;101724.69;5060976;28;20059;-80
2022/11/05 06:47:02;;;;;;;0.10;0.10;;;;;;;8.46;73.68;101722.13;5063392;28;20378;-81
2022/11/05 06:49:28;;;;;;;0.68;0.68;;;;;;;8.43;74.52;101725.56;5057171;28;20025;-80
2022/11/05 06:51:56;;;;;;;0.32;0.20;;;;;;;8.43;74.64;101722.91;5059280;28;20020;-80
2022/11/05 06:54:23;;;;;;;0.10;0.10;;;;;;;8.45;74.05;101735.25;5058309;28;20056;-82
2022/11/05 06:56:49;;;;;;;0.10;0.10;;;;;;;8.43;74.44;101733.50;5061327;28;20017;-81
2022/11/05 06:59:15;;;;;;;0.28;0.28;;;;;;;8.45;74.73;101735.25;5060467;28;20041;-80
2022/11/05 07:01:41;;;;;;;0.10;0.10;;;;;;;8.49;74.25;101729.16;5065473;28;20039;-82
2022/11/05 07:04:10;;;;;;;0.10;0.10;;;;;;;8.52;74.53;101737.97;5062870;28;20116;-81
2022/11/05 07:06:36;;;;;;;0.10;0.10;;;;;;;8.57;74.60;101736.22;5066557;28;20425;-80
2022/11/05 07:09:03;;;;;;;0.75;0.75;;;;;;;8.60;74.68;101740.63;5060836;28;20031;-80
2022/11/05 07:11:29;;;;;;;0.20;0.20;;;;;;;8.67;74.54;101736.22;5057588;28;20029;-80
2022/11/05 07:13:55;;;;;;;0.20;0.20;;;;;;;8.74;74.23;101732.72;5062534;28;20096;-81
2022/11/05 07:16:21;;;;;;;0.10;0.10;;;;;;;8.79;74.59;101735.41;5057892;28;20025;-81
2022/11/05 07:18:47;;;;;;;0.20;0.20;;;;;;;8.80;74.55;101737.13;5063656;28;20040;-81
2022/11/05 07:21:14;;;;;;;0.10;0.10;;;;;;;8.85;74.96;101735.41;5065210;28;20116;-81
2022/11/05 07:23:40;;;;;;;0.10;0.10;;;;;;;8.89;74.64;101747.72;5066148;28;20032;-81
2022/11/05 07:26:06;;;;;;;0.10;0.10;;;;;;;8.93;74.51;101744.22;5063978;28;20606;-80
2022/11/05 07:28:32;;;;;;;0.10;0.10;;;;;;;8.93;74.47;101744.22;5058826;28;20037;-81
2022/11/05 07:30:58;;;;;;;2.03;1.65;;;;;;;8.94;74.43;101740.69;5057399;28;20032;-80
2022/11/05 07:33:24;;;;;;;0.10;0.10;;;;;;;8.95;74.74;101747.75;5057328;28;20456;-79
2022/11/05 07:35:50;;;;;;;0.30;0.30;;;;;;;8.95;75.00;101747.75;5056670;28;20402;-81
2022/11/05 07:38:18;;;;;;;0.13;0.13;;;;;;;8.92;74.45;101747.72;5058770;28;20070;-80
2022/11/05 07:40:44;;;;;;;0.10;0.10;;;;;;;8.93;74.97;101751.25;5067238;28;20033;-79
2022/11/05 07:43:11;;;;;;;0.60;0.60;;;;;;;8.96;74.75;101749.50;5070193;28;20028;-80
2022/11/05 07:45:37;;;;;;;0.17;0.17;;;;;;;8.99;74.43;101752.16;5076534;28;20032;-80
2022/11/05 07:48:04;;;;;;;0.28;0.28;;;;;;;9.04;74.67;101747.75;5070586;28;20024;-79
2022/11/05 07:50:35;;;;;;;0.10;0.10;;;;;;;9.08;74.76;101753.91;5068650;28;20028;-79
2022/11/05 07:53:05;;;;;;;0.30;0.30;;;;;;;9.11;75.10;101755.69;5073031;28;20054;-80
2022/11/05 07:55:32;;;;;;;0.30;0.30;;;;;;;9.17;74.87;101755.69;5069514;28;20052;-80
2022/11/05 07:57:58;;;;;;;0.20;0.20;;;;;;;9.19;75.33;101756.56;5057649;28;20033;-79
2022/11/05 08:00:26;;;;;;;0.13;0.13;;;;;;;9.24;75.37;101762.75;5054960;28;20464;-80
2022/11/05 08:02:58;;;;;;;0.20;0.20;;;;;;;9.33;74.73;101754.81;5065169;28;20485;-79
2022/11/05 08:05:25;;;;;;;2.05;1.88;;;;;;;9.37;75.25;101746.00;5060032;28;20104;-80
2022/11/05 08:07:54;;;;;;;0.20;0.20;;;;;;;9.47;74.76;101746.88;5056758;28;20025;-79
2022/11/05 08:10:22;;;;;;;0.10;0.10;;;;;;;9.56;75.43;101740.69;5056686;28;20028;-83
2022/11/05 08:12:48;;;;;;;0.10;0.10;;;;;;;9.68;75.34;101745.97;5062310;28;20031;-79
2022/11/05 08:15:14;;;;;;;0.40;0.40;;;;;;;9.79;75.82;101753.88;5056424;28;20036;-80
2022/11/05 08:17:41;;;;;;;0.10;0.10;;;;;;;9.92;75.32;101749.44;5057620;28;20364;-81
2022/11/05 08:20:08;;;;;;;0.10;0.10;;;;;;;10.02;75.28;101750.31;5061065;28;20028;-80
2022/11/05 08:22:34;;;;;;;0.20;0.20;;;;;;;10.10;75.55;101753.78;5054403;28;20449;-79
2022/11/05 08:25:00;;;;;;;0.10;0.10;;;;;;;10.17;75.11;101744.94;5053124;28;20033;-80
2022/11/05 08:27:26;;;;;;;0.10;0.10;;;;;;;10.25;75.06;101749.34;5052169;28;20024;-80
2022/11/05 08:29:52;;;;;;;0.43;0.43;;;;;;;10.30;75.04;101755.47;5059064;28;20089;-80
2022/11/05 08:32:18;;;;;;;0.20;0.20;;;;;;;10.36;74.89;101747.53;5058294;28;20112;-80
2022/11/05 08:34:44;;;;;;;1.48;0.43;;;;;;;10.42;74.99;101752.81;5062368;28;20386;-79
2022/11/05 08:37:10;;;;;;;0.63;0.63;;;;;;;10.52;74.83;101751.00;5058198;28;20033;-79
2022/11/05 08:39:36;;;;;;;0.75;0.43;;;;;;;10.58;75.11;101756.28;5063797;28;20040;-79
2022/11/05 08:42:03;;;;;;;0.10;0.10;;;;;;;10.65;74.79;101752.72;5059551;28;20079;-78
2022/11/05 08:44:29;;;;;;;0.08;0.08;;;;;;;10.71;74.68;101750.91;5065378;28;20029;-78
2022/11/05 08:46:55;;;;;;;0.38;0.38;;;;;;;10.81;74.57;101757.91;5064383;28;20016;-79
2022/11/05 08:49:21;;;;;;;0.20;0.20;;;;;;;10.85;74.19;101754.34;5064094;28;20032;-78
2022/11/05 08:51:47;;;;;;;0.88;0.88;;;;;;;10.93;73.80;101757.81;5063784;28;20036;-79
2022/11/05 08:54:13;;;;;;;0.10;0.10;;;;;;;10.95;73.59;101758.72;5062883;28;20040;-79
2022/11/05 08:56:39;;;;;;;0.10;0.10;;;;;;;11.04;74.47;101759.50;5061688;28;20029;-81
2022/11/05 08:59:06;;;;;;;0.10;0.10;;;;;;;11.02;73.50;101762.19;5057362;28;20040;-81
2022/11/05 09:01:32;;;;;;;0.10;0.10;;;;;;;11.07;73.57;101762.16;5059745;28;20081;-81
2022/11/05 09:03:59;;;;;;;0.10;0.10;;;;;;;11.11;73.83;101761.22;5061380;28;20029;-80
2022/11/05 09:06:25;;;;;;;0.10;0.10;;;;;;;11.18;73.70;101752.34;5056614;28;20021;-80
2022/11/05 09:08:51;;;;;;;0.10;0.10;;;;;;;11.22;73.13;101755.84;5059378;28;20028;-81
2022/11/05 09:11:17;;;;;;;0.22;0.22;;;;;;;11.26;73.09;101761.09;5054221;28;20836;-81
2022/11/05 09:13:43;;;;;;;0.30;0.30;;;;;;;11.30;73.84;101764.59;5060038;28;20092;-81
2022/11/05 09:16:25;;;;;;;0.10;0.10;;;;;;;11.43;72.88;101747.69;5060676;28;20025;-82
2022/11/05 09:18:51;;;;;;;0.20;0.20;;;;;;;11.47;72.66;101753.88;5059544;28;20757;-80
2022/11/05 09:21:18;;;;;;;2.55;0.85;;;;;;;11.55;72.77;101746.72;5059244;28;20052;-82
2022/11/05 09:23:45;;;;;;;0.55;0.55;;;;;;;11.68;72.74;101754.56;5070213;28;20033;-83
2022/11/05 09:26:12;;;;;;;0.30;0.30;;;;;;;11.75;72.77;101756.25;5063638;28;20383;-83
2022/11/05 09:28:39;;;;;;;0.10;0.10;;;;;;;11.86;73.26;101759.66;5075088;28;20496;-82
2022/11/05 09:31:08;;;;;;;5.85;2.47;;;;;;;11.87;71.76;101756.13;5072377;28;20040;-83
2022/11/05 09:33:36;;;;;;;0.15;0.15;;;;;;;11.97;70.83;101752.50;5061215;28;20056;-81
2022/11/05 09:36:02;;;;;;;0.10;0.10;;;;;;;12.03;71.30;101748.03;5066726;28;20028;-83
2022/11/05 09:38:30;;;;;;;0.40;0.40;;;;;;;12.01;70.71;101763.09;5070543;28;20044;-82
2022/11/05 09:43:46;;;;;;;0.10;0.10;;;;;;;11.98;68.56;101756.91;5064541;28;20472;-81
2022/11/05 09:46:19;;;;;;;0.10;0.10;;;;;;;12.10;68.94;101757.66;5061796;28;20029;-83
2022/11/05 09:48:48;;;;;;;;;;;;;;;12.17;68.21;101761.13;5074730;28;20044;-82
2022/11/05 09:51:15;;;;;;;2.13;0.70;;;;;;;12.10;68.21;101765.63;5082392;28;19912;-82
2022/11/05 09:53:44;;;;;;;0.10;0.10;;;;;;;12.16;69.04;101773.53;5058993;28;20032;-80
2022/11/05 09:56:21;;;;;;;0.10;0.10;;;;;;;12.22;68.41;101775.25;5066091;28;20056;-79
2022/11/05 09:58:53;;;;;;;0.10;0.10;;;;;;;12.26;68.15;101768.97;5060449;28;20119;-81
2022/11/05 10:01:34;;;;;;;0.10;0.10;;;;;;;12.33;68.23;101777.78;5057858;28;20059;-81
2022/11/05 10:04:05;;;;;;;0.10;0.10;;;;;;;12.25;66.94;101764.56;5050594;28;20033;-80
2022/11/05 10:06:32;;;;;;;0.10;0.10;;;;;;;12.32;66.94;101773.34;5053521;28;20051;-83
2022/11/05 10:09:20;;;;;;;0.20;0.20;;;;;;;12.44;67.86;101770.53;5062108;28;20037;-83
2022/11/05 10:11:55;;;;;;;0.20;0.20;;;;;;;12.44;66.86;101767.88;5054048;28;20132;-83
2022/11/05 10:14:36;;;;;;;0.20;0.20;;;;;;;12.46;65.65;101768.72;5062820;28;20029;-83
2022/11/05 10:17:16;;;;;;;0.20;0.20;;;;;;;12.54;67.02;101760.69;5067508;28;20021;-82
2022/11/05 10:19:57;;;;;;;1.08;0.85;;;;;;;12.50;66.10;101761.59;5072328;28;20032;-83
2022/11/05 10:22:31;;;;;;;0.10;0.10;;;;;;;12.53;65.90;101764.22;5052586;28;20029;-82
2022/11/05 10:25:00;;;;;;;0.10;0.10;;;;;;;12.51;65.87;101766.91;5052215;28;20148;-82
2022/11/05 10:27:32;;;;;;;0.10;0.10;;;;;;;12.50;65.60;101769.56;5056630;28;20056;-83
2022/11/05 10:29:59;;;;;;;0.50;0.50;;;;;;;12.55;66.19;101771.28;5056489;28;20113;-82
2022/11/05 10:32:31;;;;;;;0.20;0.20;;;;;;;12.56;65.64;101770.38;5052638;28;20036;-83
2022/11/05 10:35:05;;;;;;;0.30;0.30;;;;;;;12.55;66.05;101773.06;5052155;28;20092;-82
2022/11/05 10:37:40;;;;;;;0.10;0.10;;;;;;;12.60;65.60;101771.22;5050894;28;20090;-82
2022/11/05 10:40:37;;;;;;;0.10;0.10;;;;;;;12.64;64.49;101777.38;5058229;28;20494;-80
2022/11/05 10:46:15;;;;;;;0.10;0.10;;;;;;;12.68;64.57;101774.66;5057910;28;20396;-80
2022/11/05 10:48:55;;;;;;;0.10;0.10;;;;;;;12.74;65.18;101785.19;5029087;28;20049;-80
2022/11/05 10:51:22;;;;;;;0.10;0.10;;;;;;;12.68;64.25;101779.09;5028681;28;20061;-79
2022/11/05 10:53:55;;;;;;;0.10;0.10;;;;;;;12.80;64.70;101778.94;5029293;28;20568;-81
2022/11/05 10:56:38;;;;;;;0.10;0.10;;;;;;;12.83;64.30;101778.88;5030396;28;20462;-80
2022/11/05 10:59:18;;;;;;;0.10;0.10;;;;;;;12.81;64.13;101772.72;5024130;28;20048;-79
2022/11/05 11:01:44;;;;;;;0.10;0.10;;;;;;;12.79;64.31;101771.84;5018309;28;20088;-79
2022/11/05 11:04:23;;;;;;;8.27;1.35;;;;;;;12.99;64.30;101776.88;5016749;28;20034;-79
2022/11/05 11:06:52;;;;;;;0.10;0.10;;;;;;;12.97;63.96;101764.50;5017501;28;20040;-79
2022/11/05 11:09:22;;;;;;;0.10;0.10;;;;;;;12.99;64.03;101762.69;5020961;28;20034;-79
2022/11/05 11:11:58;;;;;;;0.10;0.10;;;;;;;13.12;63.70;101769.56;5025170;28;20017;-80
2022/11/05 11:14:24;;;;;;;0.25;0.25;;;;;;;13.20;63.67;101767.66;5024877;28;20025;-79
2022/11/05 11:16:56;;;;;;;0.10;0.10;;;;;;;13.32;63.80;101776.34;5023593;28;20497;-79
2022/11/05 11:24:42;;;;;;;0.10;0.10;;;;;;;13.67;62.71;101766.91;5088624;27;20352;-79
2022/11/05 11:27:14;;;;;;;0.13;0.13;;;;;;;13.67;61.39;101767.81;5080927;28;20443;-79
2022/11/05 11:29:43;;;;;;;0.88;0.88;;;;;;;13.80;61.68;101764.91;5082442;28;20036;-79
2022/11/05 11:32:14;;;;;;;1.48;1.45;;;;;;;13.83;62.66;101773.72;5083550;28;20038;-78
2022/11/05 11:34:44;;;;;;;0.13;0.13;;;;;;;13.91;62.61;101761.13;5081776;28;20029;-78
2022/11/05 11:37:17;;;;;;;0.20;0.20;;;;;;;13.98;61.48;101761.00;5081664;28;20041;-79
2022/11/05 11:39:49;;;;;;;0.10;0.10;;;;;;;14.10;61.32;101750.09;5075929;28;20092;-80
2022/11/05 11:42:22;;;;;;;0.30;0.30;;;;;;;14.19;61.62;101757.03;5079791;28;20574;-80
2022/11/05 11:44:49;;;;;;;0.60;0.60;;;;;;;14.15;61.05;101758.00;5078973;28;20036;-79
2022/11/05 11:47:18;;;;;;;0.10;0.10;;;;;;;14.10;60.89;101758.09;5079018;28;20143;-80
2022/11/05 11:49:51;;;;;;;0.10;0.10;;;;;;;14.13;61.62;101759.81;5084105;28;20119;-80
2022/11/05 11:55:21;;;;;;;0.10;0.10;;;;;;;14.04;61.25;101758.22;5095434;27;1214916;-82
2022/11/05 11:57:52;;;;;;;0.30;0.30;;;;;;;13.93;60.90;101762.88;5117964;28;20049;-81
2022/11/05 12:00:22;;;;;;;0.10;0.10;;;;;;;13.87;60.97;101759.44;5104262;28;20091;-82
2022/11/05 12:05:41;;;;;;;0.10;0.10;;;;;;;13.91;61.08;101757.59;5107997;27;20354;-80
2022/11/05 12:08:22;;;;;;;0.10;0.10;;;;;;;14.00;61.34;101748.53;5084403;28;20078;-80
2022/11/05 12:11:14;;;;;;;0.20;0.20;;;;;;;14.10;60.87;101747.44;5082304;28;20040;-80
2022/11/05 12:16:33;;;;;;;0.10;0.10;;;;;;;14.05;59.86;101752.00;5057356;28;20915;-81
2022/11/05 12:24:56;;;;;;;0.20;0.20;;;;;;;14.04;59.75;101742.22;5111031;27;20377;-80
2022/11/05 12:30:17;;;;;;;0.10;0.10;;;;;;;14.02;60.16;101744.94;5097715;27;1231551;-81
2022/11/05 12:36:02;;;;;;;0.10;0.10;;;;;;;14.00;60.20;101716.56;5102782;27;20727;-80
2022/11/05 12:38:45;;;;;;;0.17;0.17;;;;;;;13.98;59.94;101729.94;5076726;28;20045;-81
2022/11/05 12:41:23;;;;;;;0.20;0.20;;;;;;;13.90;59.96;101727.38;5076917;28;20480;-81
2022/11/05 12:53:35;;;;;;;0.20;0.20;;;;;;;13.90;59.91;101706.06;5103837;27;20391;-80
2022/11/05 12:56:09;;;;;;;0.10;0.10;;;;;;;13.90;59.91;101708.75;5090900;28;20367;-82
2022/11/05 12:58:42;;;;;;;0.17;0.17;;;;;;;13.93;60.01;101705.13;5090954;28;20020;-78
2022/11/05 13:14:02;;;;;;;0.10;0.10;;;;;;;13.91;59.64;101685.66;5092469;27;20941;-80
2022/11/05 13:16:41;;;;;;;0.30;0.30;;;;;;;14.10;59.48;101680.81;5066194;28;20098;-80
2022/11/05 13:19:28;;;;;;;0.10;0.10;;;;;;;14.14;59.27;101677.16;5071062;28;20033;-81
2022/11/05 13:22:08;;;;;;;0.10;0.10;;;;;;;14.17;59.65;101673.59;5072670;28;20593;-81
2022/11/05 13:24:46;;;;;;;0.30;0.30;;;;;;;14.08;59.62;101675.53;5072128;28;20088;-81
2022/11/05 13:27:39;;;;;;;0.10;0.10;;;;;;;14.11;58.92;101671.91;5067415;28;20037;-80
2022/11/05 13:30:11;;;;;;;0.13;0.13;;;;;;;14.05;59.30;101662.25;5080359;28;20024;-80
2022/11/05 13:32:44;;;;;;;0.35;0.35;;;;;;;14.02;59.34;101669.47;5084354;28;20028;-81
2022/11/05 13:35:20;;;;;;;0.10;0.10;;;;;;;14.05;59.45;101674.72;5086381;28;20438;-80
2022/11/05 13:52:31;;;;;;;0.10;0.10;;;;;;;13.91;59.83;101675.88;5102509;27;1178628;-80
2022/11/05 13:55:26;;;;;;;0.10;0.10;;;;;;;13.84;58.63;101678.69;5117822;28;20053;-80
2022/11/05 13:58:13;;;;;;;0.10;0.10;;;;;;;13.90;59.66;101671.44;5105348;28;20089;-81
2022/11/05 14:01:05;;;;;;;0.10;0.10;;;;;;;13.81;59.38;101669.00;5112374;28;20048;-79
2022/11/05 14:03:31;;;;;;;0.10;0.10;;;;;;;13.79;59.47;101665.47;5115291;28;20036;-80
2022/11/05 14:06:08;;;;;;;0.10;0.10;;;;;;;13.77;59.71;101664.63;5112063;28;20043;-80